Nikolai, Alaska
Current Conditions -  °F | °C
As of 3:56 AM on Friday 19 Dec 2014 (Local Time) from PAFS Reporting Station
Light Snow Light Snow  
Wind Chill:   Ceiling: 1100
Heat Index: 14°   Visibility: 10mi
Dew Point: 11°   Wind: 7mph
Humidity: 88%   Direction: 50°NE
Pressure: 29.27"   Gusts: NA
Location:  63.01°N, 154.38°W
Report Text: PAFS 191256Z AUTO 05006KT 10SM -SN OVC011 M10/M12 A2927 RMK AO2 TSNO T11001116 P0000 SLP928 $
Loading
Personal Weather Stations






























Interactive Weather Map New forecast layout! Learn more

10-Day Weather Forecast

Advertisements
Track Severe Weather on mobile